Time;durP1;ratioP1;P1;durP2;ratioP2;P2;SDS_P1;SDS_P2;PMS_P1;PMS_P2;Temp;Humidity;BMP_temperature;BMP_pressure;BME280_temperature;BME280_humidity;BME280_pressure;Samples;Min_cycle;Max_cycle;Signal;HPM_P1;HPM_P2
2023/12/08 00:00:11;;;;;;;6.70;3.97;;;;;;;;;;5064641;28;42575;-73
2023/12/08 00:02:39;;;;;;;5.30;3.78;;;;;;;;;;5061850;28;41673;-73
2023/12/08 00:05:10;;;;;;;6.38;4.32;;;;;;;;;;5066535;28;41179;-72
2023/12/08 00:07:38;;;;;;;8.82;3.70;;;;;;;;;;5063123;28;42126;-73
2023/12/08 00:10:06;;;;;;;4.97;3.85;;;;;;;;;;5047586;28;41606;-73
2023/12/08 00:12:34;;;;;;;4.30;3.38;;;;;;;;;;5066916;28;40297;-72
2023/12/08 00:15:02;;;;;;;5.45;3.92;;;;;;;;;;5059467;28;41364;-73
2023/12/08 00:17:31;;;;;;;4.38;3.75;;;;;;;;;;5066002;28;41895;-73
2023/12/08 00:19:59;;;;;;;5.13;3.47;;;;;;;;;;5058852;28;41533;-72
2023/12/08 00:22:28;;;;;;;4.32;3.60;;;;;;;;;;5062394;28;42075;-73
2023/12/08 00:24:56;;;;;;;4.28;3.55;;;;;;;;;;5066700;28;40871;-72
2023/12/08 00:27:24;;;;;;;5.35;3.85;;;;;;;;;;5055362;28;43207;-73
2023/12/08 00:29:52;;;;;;;3.72;3.08;;;;;;;;;;5068460;28;42366;-73
2023/12/08 00:32:20;;;;;;;6.10;4.10;;;;;;;;;;5070943;28;39760;-72
2023/12/08 00:34:48;;;;;;;4.78;3.60;;;;;;;;;;5066605;28;41211;-72
2023/12/08 00:37:15;;;;;;;8.35;4.20;;;;;;;;;;5064959;28;42731;-72
2023/12/08 00:39:45;;;;;;;5.75;4.10;;;;;;;;;;5064055;28;41542;-73
2023/12/08 00:42:13;;;;;;;6.05;4.13;;;;;;;;;;5064070;28;42090;-72
2023/12/08 00:44:41;;;;;;;3.90;3.42;;;;;;;;;;5069739;28;41098;-72
2023/12/08 00:47:09;;;;;;;4.00;3.40;;;;;;;;;;5066856;28;41429;-72
2023/12/08 00:49:37;;;;;;;5.85;4.30;;;;;;;;;;5068625;28;41725;-73
2023/12/08 00:52:05;;;;;;;4.68;3.13;;;;;;;;;;5079582;28;40297;-73
2023/12/08 00:54:33;;;;;;;5.15;3.70;;;;;;;;;;5074958;28;41329;-73
2023/12/08 00:57:03;;;;;;;5.95;4.18;;;;;;;;;;5069814;28;42429;-72
2023/12/08 00:59:31;;;;;;;5.93;4.35;;;;;;;;;;5052689;28;39093;-73
2023/12/08 01:01:59;;;;;;;5.50;3.67;;;;;;;;;;5069979;28;42230;-72
2023/12/08 01:04:27;;;;;;;5.28;3.80;;;;;;;;;;5063199;28;40438;-73
2023/12/08 01:06:55;;;;;;;5.80;3.97;;;;;;;;;;5045354;28;39910;-73
2023/12/08 01:09:23;;;;;;;4.43;3.08;;;;;;;;;;5055655;28;43134;-73
2023/12/08 01:11:51;;;;;;;5.68;3.45;;;;;;;;;;5056961;28;41392;-72
2023/12/08 01:14:20;;;;;;;4.82;4.18;;;;;;;;;;5053232;28;41176;-72
2023/12/08 01:16:48;;;;;;;6.20;3.13;;;;;;;;;;5060261;28;43107;-73
2023/12/08 01:19:16;;;;;;;4.93;4.32;;;;;;;;;;5063470;28;41100;-72
2023/12/08 01:21:44;;;;;;;5.13;4.20;;;;;;;;;;5059475;28;41638;-72
2023/12/08 01:24:12;;;;;;;4.30;3.47;;;;;;;;;;5055130;28;41152;-73
2023/12/08 01:26:42;;;;;;;4.68;3.90;;;;;;;;;;5064272;28;41247;-72
2023/12/08 01:29:10;;;;;;;5.15;4.20;;;;;;;;;;5052117;28;40638;-72
2023/12/08 01:31:40;;;;;;;4.32;3.72;;;;;;;;;;5062174;28;40107;-73
2023/12/08 01:34:07;;;;;;;7.22;4.47;;;;;;;;;;5066436;28;41231;-73
2023/12/08 01:36:36;;;;;;;6.80;5.07;;;;;;;;;;5051262;28;41939;-72
2023/12/08 01:39:11;;;;;;;5.72;4.05;;;;;;;;;;5051918;28;41332;-72
2023/12/08 01:41:39;;;;;;;4.72;3.95;;;;;;;;;;5069879;28;42624;-72
2023/12/08 01:44:07;;;;;;;5.47;4.03;;;;;;;;;;5070652;28;42016;-72
2023/12/08 01:46:35;;;;;;;6.60;4.57;;;;;;;;;;5069768;28;41641;-72
2023/12/08 01:49:05;;;;;;;4.68;3.97;;;;;;;;;;5069797;28;41915;-72
2023/12/08 01:51:34;;;;;;;5.18;4.10;;;;;;;;;;5070237;28;39393;-73
2023/12/08 01:54:02;;;;;;;4.28;3.67;;;;;;;;;;5067732;28;41572;-72
2023/12/08 01:56:30;;;;;;;4.05;3.58;;;;;;;;;;5059638;28;43168;-73
2023/12/08 01:58:58;;;;;;;4.60;4.00;;;;;;;;;;5050375;28;41367;-72
2023/12/08 02:01:26;;;;;;;5.95;4.35;;;;;;;;;;5068675;28;41275;-73
2023/12/08 02:03:54;;;;;;;4.45;3.92;;;;;;;;;;5061069;28;42059;-73
2023/12/08 02:06:23;;;;;;;4.65;3.72;;;;;;;;;;5068504;28;39514;-73
2023/12/08 02:08:51;;;;;;;5.88;4.43;;;;;;;;;;5033653;28;37719;-73
2023/12/08 02:11:19;;;;;;;4.10;3.63;;;;;;;;;;5066971;28;41422;-73
2023/12/08 02:13:47;;;;;;;4.85;4.15;;;;;;;;;;5060080;28;41294;-72
2023/12/08 02:16:17;;;;;;;4.70;3.85;;;;;;;;;;5064386;28;42332;-72
2023/12/08 02:18:45;;;;;;;6.05;4.60;;;;;;;;;;5060890;28;41353;-72
2023/12/08 02:21:13;;;;;;;5.00;3.45;;;;;;;;;;5062581;28;42626;-72
2023/12/08 02:23:44;;;;;;;5.68;4.30;;;;;;;;;;5060353;28;42750;-72
2023/12/08 02:26:12;;;;;;;4.57;4.03;;;;;;;;;;5069141;28;40397;-73
2023/12/08 02:28:40;;;;;;;4.82;4.32;;;;;;;;;;5068357;28;42027;-72
2023/12/08 02:31:09;;;;;;;5.15;3.95;;;;;;;;;;5069340;28;41044;-72
2023/12/08 02:33:37;;;;;;;5.80;4.40;;;;;;;;;;5069314;28;42562;-72
2023/12/08 02:36:06;;;;;;;4.28;3.88;;;;;;;;;;5068665;28;42060;-72
2023/12/08 02:38:34;;;;;;;4.85;4.28;;;;;;;;;;5067035;28;40418;-73
2023/12/08 02:41:03;;;;;;;4.47;3.58;;;;;;;;;;5069223;28;41681;-72
2023/12/08 02:43:31;;;;;;;4.30;3.90;;;;;;;;;;5068802;28;42234;-73
2023/12/08 02:45:59;;;;;;;5.80;4.85;;;;;;;;;;5059126;28;40356;-73
2023/12/08 02:48:27;;;;;;;7.07;3.97;;;;;;;;;;5069035;28;41288;-73
2023/12/08 02:50:55;;;;;;;4.32;3.70;;;;;;;;;;5067549;28;39892;-72
2023/12/08 02:53:23;;;;;;;4.53;4.03;;;;;;;;;;5067778;28;41495;-72
2023/12/08 02:55:51;;;;;;;5.10;4.03;;;;;;;;;;5050919;28;43302;-72
2023/12/08 02:58:20;;;;;;;5.47;4.43;;;;;;;;;;5053927;28;39913;-73
2023/12/08 03:00:48;;;;;;;5.15;4.40;;;;;;;;;;5068339;28;42112;-73
2023/12/08 03:03:16;;;;;;;5.55;3.95;;;;;;;;;;5067125;28;41968;-73
2023/12/08 03:05:45;;;;;;;5.43;4.90;;;;;;;;;;5065445;28;40403;-73
2023/12/08 03:08:13;;;;;;;5.45;4.50;;;;;;;;;;5054386;28;42566;-72
2023/12/08 03:10:41;;;;;;;4.90;4.10;;;;;;;;;;5066146;28;42678;-73
2023/12/08 03:13:09;;;;;;;3.78;3.30;;;;;;;;;;5064223;28;41333;-72
2023/12/08 03:15:38;;;;;;;4.45;3.72;;;;;;;;;;5060184;28;42038;-72
2023/12/08 03:18:06;;;;;;;4.18;3.65;;;;;;;;;;5061858;28;41900;-73
2023/12/08 03:20:34;;;;;;;4.45;3.92;;;;;;;;;;5050871;28;40424;-72
2023/12/08 03:23:02;;;;;;;5.22;4.05;;;;;;;;;;5068202;28;41990;-72
2023/12/08 03:25:30;;;;;;;5.60;4.45;;;;;;;;;;5065928;28;40166;-72
2023/12/08 03:27:58;;;;;;;6.35;4.50;;;;;;;;;;5066970;28;42659;-74
2023/12/08 03:30:26;;;;;;;4.88;3.95;;;;;;;;;;5060378;28;41650;-72
2023/12/08 03:32:56;;;;;;;4.20;3.80;;;;;;;;;;5068024;28;41935;-72
2023/12/08 03:35:24;;;;;;;5.55;4.63;;;;;;;;;;5066298;28;43136;-72
2023/12/08 03:37:52;;;;;;;4.95;4.15;;;;;;;;;;5068243;28;40020;-72
2023/12/08 03:40:20;;;;;;;5.53;4.30;;;;;;;;;;5067719;28;42271;-72
2023/12/08 03:42:48;;;;;;;5.90;4.50;;;;;;;;;;5053754;28;41652;-72
2023/12/08 03:45:16;;;;;;;5.97;4.80;;;;;;;;;;5068273;28;39895;-73
2023/12/08 03:47:44;;;;;;;5.32;4.45;;;;;;;;;;5066150;28;42351;-72
2023/12/08 03:50:13;;;;;;;4.53;3.97;;;;;;;;;;5050014;28;40751;-73
2023/12/08 03:52:41;;;;;;;6.32;5.07;;;;;;;;;;5067140;28;40572;-72
2023/12/08 03:55:09;;;;;;;5.38;4.53;;;;;;;;;;5068731;28;41692;-73
2023/12/08 03:57:37;;;;;;;4.93;4.13;;;;;;;;;;5065486;28;41373;-72
2023/12/08 04:00:06;;;;;;;5.75;4.43;;;;;;;;;;5061083;28;41633;-72
2023/12/08 04:02:34;;;;;;;5.57;4.30;;;;;;;;;;5061515;28;43114;-73
2023/12/08 04:05:02;;;;;;;4.95;4.28;;;;;;;;;;5051007;28;38746;-73
2023/12/08 04:07:31;;;;;;;5.47;4.45;;;;;;;;;;5071660;28;41663;-72
2023/12/08 04:09:59;;;;;;;4.40;4.00;;;;;;;;;;5071191;28;42929;-72
2023/12/08 04:12:28;;;;;;;5.13;4.47;;;;;;;;;;5071468;28;40139;-72
2023/12/08 04:14:56;;;;;;;4.70;3.85;;;;;;;;;;5070266;28;42656;-72
2023/12/08 04:17:24;;;;;;;4.68;3.65;;;;;;;;;;5071848;28;42084;-72
2023/12/08 04:19:52;;;;;;;5.45;4.20;;;;;;;;;;5070733;28;41654;-73
2023/12/08 04:22:20;;;;;;;5.03;3.30;;;;;;;;;;5070851;28;41645;-73
2023/12/08 04:24:50;;;;;;;4.35;3.80;;;;;;;;;;5084378;28;40390;-73
2023/12/08 04:27:17;;;;;;;7.10;3.42;;;;;;;;;;5069170;28;41380;-72
2023/12/08 04:29:49;;;;;;;4.03;3.60;;;;;;;;;;5069922;28;41811;-72
2023/12/08 04:32:19;;;;;;;4.78;4.25;;;;;;;;;;5061455;28;40241;-73
2023/12/08 04:34:47;;;;;;;4.78;3.78;;;;;;;;;;5064794;28;41332;-74
2023/12/08 04:37:15;;;;;;;4.28;3.80;;;;;;;;;;5078396;28;42136;-73
2023/12/08 04:39:43;;;;;;;4.95;4.13;;;;;;;;;;5078130;28;40311;-74
2023/12/08 04:42:12;;;;;;;4.78;4.10;;;;;;;;;;5049603;28;40493;-74
2023/12/08 04:44:40;;;;;;;6.97;4.72;;;;;;;;;;5063243;28;41459;-73
2023/12/08 04:47:08;;;;;;;4.30;3.72;;;;;;;;;;5070742;28;42614;-73
2023/12/08 04:49:36;;;;;;;4.47;4.00;;;;;;;;;;5070709;28;42511;-73
2023/12/08 04:52:08;;;;;;;4.63;3.83;;;;;;;;;;5066173;28;39714;-74
2023/12/08 04:54:36;;;;;;;4.43;3.95;;;;;;;;;;5071099;28;41266;-73
2023/12/08 04:57:04;;;;;;;4.90;4.00;;;;;;;;;;5070454;28;42629;-73
2023/12/08 04:59:35;;;;;;;5.20;4.00;;;;;;;;;;5067986;28;41547;-73
2023/12/08 05:02:03;;;;;;;4.60;3.83;;;;;;;;;;5057094;28;42604;-74
2023/12/08 05:04:31;;;;;;;5.60;4.15;;;;;;;;;;5067075;28;40399;-73
2023/12/08 05:06:59;;;;;;;5.18;4.65;;;;;;;;;;5052586;28;39884;-73
2023/12/08 05:09:27;;;;;;;5.80;4.65;;;;;;;;;;5064625;28;41965;-73
2023/12/08 05:11:55;;;;;;;5.30;4.18;;;;;;;;;;5078227;28;40484;-73
2023/12/08 05:14:23;;;;;;;5.70;4.80;;;;;;;;;;5061171;28;41778;-73
2023/12/08 05:16:53;;;;;;;5.78;4.25;;;;;;;;;;5069019;28;43084;-74
2023/12/08 05:19:20;;;;;;;4.57;4.00;;;;;;;;;;5068075;28;40035;-74
2023/12/08 05:21:49;;;;;;;5.30;4.03;;;;;;;;;;5051665;28;40800;-73
2023/12/08 05:24:17;;;;;;;5.45;4.32;;;;;;;;;;5051684;28;38910;-73
2023/12/08 05:26:45;;;;;;;3.85;3.45;;;;;;;;;;5070055;28;41886;-73
2023/12/08 05:29:13;;;;;;;4.40;4.00;;;;;;;;;;5060796;28;42934;-73
2023/12/08 05:31:42;;;;;;;4.72;3.88;;;;;;;;;;5051349;28;38640;-74
2023/12/08 05:34:11;;;;;;;5.38;4.30;;;;;;;;;;5070913;28;41377;-73
2023/12/08 05:36:39;;;;;;;3.78;3.30;;;;;;;;;;5069455;28;42223;-74
2023/12/08 05:39:07;;;;;;;5.60;4.35;;;;;;;;;;5068011;28;41236;-73
2023/12/08 05:41:35;;;;;;;4.60;4.07;;;;;;;;;;5076944;28;41660;-73
2023/12/08 05:44:03;;;;;;;4.63;3.97;;;;;;;;;;5070099;28;43340;-73
2023/12/08 05:46:31;;;;;;;4.78;4.28;;;;;;;;;;5069738;28;42096;-73
2023/12/08 05:48:59;;;;;;;4.90;4.25;;;;;;;;;;5055527;28;42038;-73
2023/12/08 05:51:28;;;;;;;4.50;3.92;;;;;;;;;;5070049;28;41379;-73
2023/12/08 05:53:56;;;;;;;4.70;3.85;;;;;;;;;;5054777;28;42185;-73
2023/12/08 05:56:24;;;;;;;5.25;4.32;;;;;;;;;;5066609;28;43137;-73
2023/12/08 05:58:52;;;;;;;4.22;3.67;;;;;;;;;;5059249;28;41387;-73
2023/12/08 06:01:21;;;;;;;4.45;4.05;;;;;;;;;;5069116;28;42266;-73
2023/12/08 06:03:50;;;;;;;5.07;4.22;;;;;;;;;;5069280;28;41639;-73
2023/12/08 06:06:18;;;;;;;4.05;3.47;;;;;;;;;;5068674;28;39959;-74
2023/12/08 06:08:48;;;;;;;5.13;4.55;;;;;;;;;;5069660;28;42196;-73
2023/12/08 06:11:16;;;;;;;4.43;4.00;;;;;;;;;;5065956;28;41240;-74
2023/12/08 06:13:44;;;;;;;3.95;3.55;;;;;;;;;;5069116;28;41636;-73
2023/12/08 06:16:12;;;;;;;5.40;4.43;;;;;;;;;;5068860;28;42019;-73
2023/12/08 06:18:40;;;;;;;5.85;4.22;;;;;;;;;;5062076;28;40517;-73
2023/12/08 06:21:08;;;;;;;5.18;4.38;;;;;;;;;;5065659;28;43200;-73
2023/12/08 06:23:36;;;;;;;5.28;3.42;;;;;;;;;;5063129;28;41803;-73
2023/12/08 06:26:06;;;;;;;4.25;3.85;;;;;;;;;;5068724;28;40020;-73
2023/12/08 06:28:34;;;;;;;3.45;2.80;;;;;;;;;;5038655;28;40682;-73
2023/12/08 06:31:02;;;;;;;5.28;4.20;;;;;;;;;;5047557;28;38832;-73
2023/12/08 06:33:30;;;;;;;5.35;4.68;;;;;;;;;;5068535;28;42132;-73
2023/12/08 06:35:58;;;;;;;5.30;4.20;;;;;;;;;;5068271;28;42049;-73
2023/12/08 06:38:26;;;;;;;4.72;4.05;;;;;;;;;;5067973;28;40313;-73
2023/12/08 06:40:54;;;;;;;4.07;3.30;;;;;;;;;;5050757;28;41271;-73
2023/12/08 06:43:23;;;;;;;4.80;3.90;;;;;;;;;;5067367;28;43148;-73
2023/12/08 06:45:51;;;;;;;6.32;4.50;;;;;;;;;;5047466;28;39154;-73
2023/12/08 06:48:21;;;;;;;4.15;3.75;;;;;;;;;;5050957;28;42121;-73
2023/12/08 06:50:50;;;;;;;5.18;4.38;;;;;;;;;;5064294;28;33334;-73
2023/12/08 06:53:18;;;;;;;4.40;3.80;;;;;;;;;;5051337;28;41206;-73
2023/12/08 06:55:46;;;;;;;4.15;3.67;;;;;;;;;;5032464;28;43180;-73
2023/12/08 06:58:14;;;;;;;4.70;4.20;;;;;;;;;;5046290;28;39251;-73
2023/12/08 07:00:43;;;;;;;5.53;4.50;;;;;;;;;;5062282;28;42358;-73
2023/12/08 07:03:11;;;;;;;6.80;5.00;;;;;;;;;;5041354;28;41873;-73
2023/12/08 07:05:39;;;;;;;5.00;4.50;;;;;;;;;;5045608;28;40402;-73
2023/12/08 07:08:07;;;;;;;4.70;4.05;;;;;;;;;;5066688;28;42433;-73
2023/12/08 07:10:35;;;;;;;6.60;5.18;;;;;;;;;;5062981;28;41938;-73
2023/12/08 07:13:03;;;;;;;3.97;3.28;;;;;;;;;;5065098;28;42318;-73
2023/12/08 07:15:31;;;;;;;5.18;4.25;;;;;;;;;;5068531;28;42062;-73
2023/12/08 07:18:04;;;;;;;4.93;4.00;;;;;;;;;;5052595;28;40438;-73
2023/12/08 07:20:47;;;;;;;5.00;4.50;;;;;;;;;;5059479;28;41406;-74
2023/12/08 07:23:15;;;;;;;5.15;4.45;;;;;;;;;;5046937;28;41531;-73
2023/12/08 07:25:43;;;;;;;6.95;5.22;;;;;;;;;;5047199;28;42039;-74
2023/12/08 07:28:11;;;;;;;4.57;3.42;;;;;;;;;;5059626;28;42332;-73
2023/12/08 07:30:39;;;;;;;4.90;4.18;;;;;;;;;;5067488;28;41721;-73
2023/12/08 07:33:08;;;;;;;4.80;3.92;;;;;;;;;;5060910;28;40758;-73
2023/12/08 07:35:36;;;;;;;5.38;3.78;;;;;;;;;;5047691;28;40521;-73
2023/12/08 07:38:04;;;;;;;7.15;4.65;;;;;;;;;;5066761;28;40132;-73
2023/12/08 07:40:33;;;;;;;6.20;5.10;;;;;;;;;;5060900;28;42300;-73
2023/12/08 07:43:01;;;;;;;4.38;3.83;;;;;;;;;;5061418;28;42166;-73
2023/12/08 07:45:29;;;;;;;5.03;4.53;;;;;;;;;;5067015;28;39943;-73
2023/12/08 07:47:57;;;;;;;4.13;3.70;;;;;;;;;;5049059;28;40839;-73
2023/12/08 07:50:27;;;;;;;5.22;4.72;;;;;;;;;;5067021;28;41666;-73
2023/12/08 07:52:55;;;;;;;4.80;3.80;;;;;;;;;;5057726;28;39980;-73
2023/12/08 07:55:24;;;;;;;4.00;3.42;;;;;;;;;;5067391;28;42263;-73
2023/12/08 07:57:52;;;;;;;4.85;4.00;;;;;;;;;;5064227;28;41280;-74
2023/12/08 08:00:21;;;;;;;6.80;4.28;;;;;;;;;;5058574;28;42096;-73
2023/12/08 08:02:49;;;;;;;6.22;5.07;;;;;;;;;;5067113;28;41590;-74
2023/12/08 08:05:17;;;;;;;5.93;4.57;;;;;;;;;;5061828;28;40329;-73
2023/12/08 08:07:47;;;;;;;4.68;3.95;;;;;;;;;;5063135;28;42554;-73
2023/12/08 08:10:35;;;;;;;6.28;4.78;;;;;;;;;;5064827;28;41812;-76
2023/12/08 08:13:09;;;;;;;6.25;5.07;;;;;;;;;;5033057;28;39354;-75
2023/12/08 08:15:37;;;;;;;5.30;4.20;;;;;;;;;;5057431;28;42639;-74
2023/12/08 08:18:06;;;;;;;7.60;5.45;;;;;;;;;;5063723;28;42609;-75
2023/12/08 08:20:34;;;;;;;5.40;4.82;;;;;;;;;;5067356;28;41887;-75
2023/12/08 08:23:03;;;;;;;7.03;5.93;;;;;;;;;;5064978;28;42670;-74
2023/12/08 08:25:31;;;;;;;5.90;4.93;;;;;;;;;;5060212;28;40499;-75
2023/12/08 08:28:00;;;;;;;8.07;5.53;;;;;;;;;;5065476;28;42551;-74
2023/12/08 08:30:28;;;;;;;7.10;5.55;;;;;;;;;;5063182;28;42129;-73
2023/12/08 08:32:55;;;;;;;7.50;5.47;;;;;;;;;;5067008;28;41342;-74
2023/12/08 08:35:24;;;;;;;6.03;5.10;;;;;;;;;;5052443;28;42149;-74
2023/12/08 08:37:52;;;;;;;7.05;5.40;;;;;;;;;;5062171;28;42161;-76
2023/12/08 08:40:21;;;;;;;7.20;5.53;;;;;;;;;;5061163;28;42292;-74
2023/12/08 08:42:49;;;;;;;7.20;5.30;;;;;;;;;;5062424;28;43033;-71
2023/12/08 08:45:19;;;;;;;7.47;5.50;;;;;;;;;;5059125;28;41347;-72
2023/12/08 08:47:47;;;;;;;7.47;5.25;;;;;;;;;;5056936;28;40998;-73
2023/12/08 08:50:15;;;;;;;7.05;5.13;;;;;;;;;;5067866;28;42321;-72
2023/12/08 08:52:43;;;;;;;6.22;4.82;;;;;;;;;;5068718;28;40134;-74
2023/12/08 08:55:11;;;;;;;6.35;4.72;;;;;;;;;;5059513;28;41962;-75
2023/12/08 08:57:41;;;;;;;7.68;6.10;;;;;;;;;;5063954;28;41672;-74
2023/12/08 09:00:11;;;;;;;7.07;4.80;;;;;;;;;;5058467;28;40253;-74
2023/12/08 09:02:40;;;;;;;5.90;4.22;;;;;;;;;;5050071;28;40925;-74
2023/12/08 09:05:09;;;;;;;8.18;5.47;;;;;;;;;;5069603;28;41389;-74
2023/12/08 09:07:37;;;;;;;7.55;5.70;;;;;;;;;;5069664;28;42207;-74
2023/12/08 09:10:07;;;;;;;12.00;6.38;;;;;;;;;;5053608;28;42900;-74
2023/12/08 09:12:34;;;;;;;11.48;6.10;;;;;;;;;;5069300;28;40486;-74
2023/12/08 09:15:04;;;;;;;7.18;6.40;;;;;;;;;;5049563;28;40993;-74
2023/12/08 09:17:32;;;;;;;10.52;5.75;;;;;;;;;;5056628;28;44037;-74
2023/12/08 09:20:00;;;;;;;8.15;5.50;;;;;;;;;;5062801;28;40512;-73
2023/12/08 09:22:28;;;;;;;7.18;5.00;;;;;;;;;;5060441;28;42382;-74
2023/12/08 09:24:56;;;;;;;7.93;5.78;;;;;;;;;;5067835;28;40301;-74
2023/12/08 09:27:24;;;;;;;8.25;6.07;;;;;;;;;;5068245;28;41607;-74
2023/12/08 09:29:53;;;;;;;6.50;4.90;;;;;;;;;;5069288;28;41563;-73
2023/12/08 09:32:22;;;;;;;9.65;5.72;;;;;;;;;;5064651;28;41463;-74
2023/12/08 09:34:51;;;;;;;8.85;6.70;;;;;;;;;;5066168;28;41212;-71
2023/12/08 09:37:19;;;;;;;7.43;5.13;;;;;;;;;;5068191;28;43731;-71
2023/12/08 09:40:04;;;;;;;10.32;6.07;;;;;;;;;;5081395;28;40344;-70
2023/12/08 09:42:36;;;;;;;7.93;5.75;;;;;;;;;;5057033;28;42827;-72
2023/12/08 09:45:05;;;;;;;6.47;5.30;;;;;;;;;;5050454;28;42124;-73
2023/12/08 09:47:35;;;;;;;14.00;6.95;;;;;;;;;;5068492;28;40384;-74
2023/12/08 09:50:05;;;;;;;10.85;6.30;;;;;;;;;;5061923;28;42572;-75
2023/12/08 09:52:34;;;;;;;8.45;5.90;;;;;;;;;;5067355;28;41040;-74
2023/12/08 09:55:03;;;;;;;10.10;6.18;;;;;;;;;;5067598;28;41393;-71
2023/12/08 09:57:31;;;;;;;11.63;5.93;;;;;;;;;;5063681;28;41549;-76
2023/12/08 10:00:00;;;;;;;10.25;5.72;;;;;;;;;;5058433;28;41111;-76
2023/12/08 10:02:31;;;;;;;8.82;5.88;;;;;;;;;;5070843;28;42806;-76
2023/12/08 10:05:00;;;;;;;7.07;5.60;;;;;;;;;;5067169;28;43255;-77
2023/12/08 10:07:31;;;;;;;8.82;6.50;;;;;;;;;;5044095;28;39014;-75
2023/12/08 10:09:59;;;;;;;8.75;5.75;;;;;;;;;;5068378;28;44083;-76
2023/12/08 10:12:27;;;;;;;8.48;5.68;;;;;;;;;;5044491;28;41548;-75
2023/12/08 10:14:55;;;;;;;8.57;6.10;;;;;;;;;;5067395;28;41231;-74
2023/12/08 10:17:23;;;;;;;6.07;4.97;;;;;;;;;;5069237;28;42621;-75
2023/12/08 10:19:52;;;;;;;11.30;7.82;;;;;;;;;;5067964;28;40850;-77
2023/12/08 10:22:23;;;;;;;8.95;5.55;;;;;;;;;;5069122;28;41253;-78
2023/12/08 10:24:51;;;;;;;9.85;6.97;;;;;;;;;;5065670;28;42325;-77
2023/12/08 10:27:19;;;;;;;7.72;5.63;;;;;;;;;;5049909;28;38760;-78
2023/12/08 10:29:47;;;;;;;13.40;8.05;;;;;;;;;;5038031;28;40052;-76
2023/12/08 10:32:14;;;;;;;9.48;6.95;;;;;;;;;;5051693;28;38932;-77
2023/12/08 10:34:43;;;;;;;10.52;7.93;;;;;;;;;;5064992;28;41142;-77
2023/12/08 10:37:10;;;;;;;11.77;8.75;;;;;;;;;;5068401;28;43103;-75
2023/12/08 10:39:40;;;;;;;15.95;10.57;;;;;;;;;;5072636;28;40304;-74
2023/12/08 10:42:08;;;;;;;17.27;10.93;;;;;;;;;;5064310;28;41342;-72
2023/12/08 10:44:36;;;;;;;14.63;10.13;;;;;;;;;;5068237;28;42911;-74
2023/12/08 10:47:05;;;;;;;14.32;10.48;;;;;;;;;;5051673;28;39998;-74
2023/12/08 10:49:34;;;;;;;10.68;7.93;;;;;;;;;;5064252;28;42251;-74
2023/12/08 10:52:02;;;;;;;13.05;8.98;;;;;;;;;;5061423;28;43114;-74
2023/12/08 10:54:30;;;;;;;10.68;8.75;;;;;;;;;;5060835;28;41734;-74
2023/12/08 10:56:59;;;;;;;10.27;8.52;;;;;;;;;;5062348;28;43042;-75
2023/12/08 10:59:27;;;;;;;16.65;11.20;;;;;;;;;;5051671;28;40181;-74
2023/12/08 11:01:56;;;;;;;14.40;9.63;;;;;;;;;;5056617;28;20719;-76
2023/12/08 11:04:24;;;;;;;13.93;9.23;;;;;;;;;;5056465;28;41942;-77
2023/12/08 11:06:55;;;;;;;9.93;7.63;;;;;;;;;;5057803;28;40160;-77
2023/12/08 11:09:23;;;;;;;12.82;9.20;;;;;;;;;;5042625;28;40824;-76
2023/12/08 11:11:53;;;;;;;11.77;8.68;;;;;;;;;;5060795;28;42670;-74
2023/12/08 11:14:25;;;;;;;13.85;9.43;;;;;;;;;;5057356;28;41015;-79
2023/12/08 11:16:53;;;;;;;17.08;8.98;;;;;;;;;;5054168;28;41996;-77
2023/12/08 11:19:21;;;;;;;20.63;9.30;;;;;;;;;;5059694;28;40397;-77
2023/12/08 11:21:52;;;;;;;12.63;5.97;;;;;;;;;;5055716;28;41795;-77
2023/12/08 11:24:20;;;;;;;19.20;7.85;;;;;;;;;;5064822;28;42932;-76
2023/12/08 11:26:50;;;;;;;13.98;6.25;;;;;;;;;;5065422;28;40526;-78
2023/12/08 11:29:20;;;;;;;14.20;7.45;;;;;;;;;;5056473;28;42362;-78
2023/12/08 11:31:50;;;;;;;21.65;8.52;;;;;;;;;;5056365;28;43072;-74
2023/12/08 11:34:18;;;;;;;16.63;8.23;;;;;;;;;;5059427;28;40902;-77
2023/12/08 11:36:46;;;;;;;19.55;9.55;;;;;;;;;;5050489;28;42118;-76
2023/12/08 11:39:33;;;;;;;16.00;7.55;;;;;;;;;;5052707;28;41121;-78
2023/12/08 11:42:03;;;;;;;11.80;6.30;;;;;;;;;;5061396;28;41274;-75
2023/12/08 11:44:33;;;;;;;15.40;6.97;;;;;;;;;;5060568;28;42112;-73
2023/12/08 11:47:02;;;;;;;19.50;7.10;;;;;;;;;;5064800;28;40206;-72
2023/12/08 11:49:30;;;;;;;15.70;7.95;;;;;;;;;;5065239;28;41546;-73
2023/12/08 11:52:05;;;;;;;14.40;8.55;;;;;;;;;;5066440;28;42621;-72
2023/12/08 11:54:36;;;;;;;13.45;6.97;;;;;;;;;;5061292;28;39866;-77
2023/12/08 11:57:08;;;;;;;14.30;8.32;;;;;;;;;;5064492;28;42102;-77
2023/12/08 11:59:41;;;;;;;13.38;6.70;;;;;;;;;;5060970;28;41378;-74
2023/12/08 12:02:11;;;;;;;14.50;8.45;;;;;;;;;;5060828;28;42638;-76
2023/12/08 12:04:39;;;;;;;16.42;7.63;;;;;;;;;;5060243;28;42001;-76
2023/12/08 12:07:08;;;;;;;14.57;8.15;;;;;;;;;;5059495;28;40319;-76
2023/12/08 12:09:35;;;;;;;14.98;7.18;;;;;;;;;;5064022;28;41568;-76
2023/12/08 12:12:05;;;;;;;14.77;8.75;;;;;;;;;;5065951;28;42451;-75
2023/12/08 12:14:33;;;;;;;13.98;8.77;;;;;;;;;;5064084;28;40331;-75
2023/12/08 12:17:01;;;;;;;14.60;8.30;;;;;;;;;;5066386;28;42221;-75
2023/12/08 12:19:31;;;;;;;12.38;8.40;;;;;;;;;;5065112;28;41996;-75
2023/12/08 12:21:59;;;;;;;18.35;8.88;;;;;;;;;;5059977;28;41294;-75
2023/12/08 12:24:26;;;;;;;16.77;9.23;;;;;;;;;;5058590;28;41965;-75
2023/12/08 12:26:54;;;;;;;15.20;8.57;;;;;;;;;;5068013;28;40287;-76
2023/12/08 12:29:23;;;;;;;15.15;8.75;;;;;;;;;;5066387;28;41620;-75
2023/12/08 12:31:51;;;;;;;13.35;7.10;;;;;;;;;;5065695;28;42328;-75
2023/12/08 12:34:19;;;;;;;10.48;7.38;;;;;;;;;;5059755;28;39871;-75
2023/12/08 12:36:49;;;;;;;15.77;9.20;;;;;;;;;;5052458;28;41130;-75
2023/12/08 12:39:17;;;;;;;12.90;8.98;;;;;;;;;;5062678;28;41918;-75
2023/12/08 12:41:45;;;;;;;17.75;9.70;;;;;;;;;;5053991;28;41083;-76
2023/12/08 12:44:13;;;;;;;14.55;8.82;;;;;;;;;;5067001;28;41858;-75
2023/12/08 12:46:41;;;;;;;12.82;8.40;;;;;;;;;;5056145;28;40023;-76
2023/12/08 12:49:13;;;;;;;12.15;8.18;;;;;;;;;;5057640;28;42604;-76
2023/12/08 12:51:42;;;;;;;12.73;7.85;;;;;;;;;;5066809;28;42828;-75
2023/12/08 12:54:11;;;;;;;14.18;8.18;;;;;;;;;;5065411;28;41345;-76
2023/12/08 12:56:48;;;;;;;12.82;8.82;;;;;;;;;;5068230;28;41766;-76
2023/12/08 12:59:17;;;;;;;23.70;9.63;;;;;;;;;;5069399;28;42235;-73
2023/12/08 13:01:45;;;;;;;31.23;10.45;;;;;;;;;;5067488;28;40264;-74
2023/12/08 13:04:15;;;;;;;31.33;11.40;;;;;;;;;;5069100;28;43073;-75
2023/12/08 13:06:43;;;;;;;47.33;11.90;;;;;;;;;;5067703;28;40245;-76
2023/12/08 13:09:12;;;;;;;31.45;11.07;;;;;;;;;;5058883;28;40597;-75
2023/12/08 13:11:40;;;;;;;35.60;10.52;;;;;;;;;;5058918;28;41702;-75
2023/12/08 13:14:08;;;;;;;33.00;10.25;;;;;;;;;;5063892;28;42311;-74
2023/12/08 13:16:36;;;;;;;22.48;10.98;;;;;;;;;;5062532;28;41505;-74
2023/12/08 13:19:04;;;;;;;31.40;10.55;;;;;;;;;;5059052;28;42471;-75
2023/12/08 13:21:32;;;;;;;25.55;10.15;;;;;;;;;;5062230;28;40363;-75
2023/12/08 13:24:00;;;;;;;26.30;9.90;;;;;;;;;;5058752;28;41776;-74
2023/12/08 13:26:30;;;;;;;25.58;9.80;;;;;;;;;;5057557;28;41307;-74
2023/12/08 13:28:57;;;;;;;31.38;9.70;;;;;;;;;;5058054;28;41723;-74
2023/12/08 13:31:25;;;;;;;24.50;9.73;;;;;;;;;;5058142;28;41931;-74
2023/12/08 13:33:54;;;;;;;23.85;9.85;;;;;;;;;;5060969;28;40484;-74
2023/12/08 13:36:23;;;;;;;26.42;9.98;;;;;;;;;;5058254;28;41504;-74
2023/12/08 13:38:51;;;;;;;22.65;9.07;;;;;;;;;;5041932;28;42013;-75
2023/12/08 13:41:19;;;;;;;30.13;9.90;;;;;;;;;;5060493;28;40370;-74
2023/12/08 13:43:48;;;;;;;23.15;8.70;;;;;;;;;;5044458;28;40373;-74
2023/12/08 13:46:16;;;;;;;25.20;9.75;;;;;;;;;;5056690;28;41967;-74
2023/12/08 13:48:44;;;;;;;20.95;9.90;;;;;;;;;;5058027;28;40972;-74
2023/12/08 13:51:12;;;;;;;27.10;9.07;;;;;;;;;;5059909;28;42275;-74
2023/12/08 13:54:00;;;;;;;23.30;9.77;;;;;;;;;;5055429;28;40264;-74
2023/12/08 13:56:28;;;;;;;24.98;9.70;;;;;;;;;;5060638;28;41869;-74
2023/12/08 13:58:57;;;;;;;16.52;8.10;;;;;;;;;;5058492;28;42009;-74
2023/12/08 14:01:26;;;;;;;22.08;10.05;;;;;;;;;;5061307;28;40412;-75
2023/12/08 14:03:54;;;;;;;17.70;8.05;;;;;;;;;;5056426;28;41834;-74
2023/12/08 14:06:22;;;;;;;20.13;8.77;;;;;;;;;;5057206;28;41400;-74
2023/12/08 14:08:51;;;;;;;20.08;8.48;;;;;;;;;;5038685;28;39100;-74
2023/12/08 14:11:20;;;;;;;17.08;8.30;;;;;;;;;;5058594;28;42183;-74
2023/12/08 14:13:48;;;;;;;18.80;7.90;;;;;;;;;;5068950;28;40629;-74
2023/12/08 14:16:17;;;;;;;17.20;7.90;;;;;;;;;;5054386;28;42141;-75
2023/12/08 14:18:45;;;;;;;15.63;7.80;;;;;;;;;;5060593;28;41658;-75
2023/12/08 14:21:14;;;;;;;18.10;9.20;;;;;;;;;;5058994;28;40363;-75
2023/12/08 14:23:43;;;;;;;13.15;7.75;;;;;;;;;;5059353;28;42246;-75
2023/12/08 14:26:11;;;;;;;19.52;8.02;;;;;;;;;;5058320;28;42617;-75
2023/12/08 14:28:39;;;;;;;19.75;8.02;;;;;;;;;;5061262;28;41274;-75
2023/12/08 14:31:07;;;;;;;14.85;8.38;;;;;;;;;;5061272;28;41287;-75
2023/12/08 14:33:37;;;;;;;18.35;9.13;;;;;;;;;;5060546;28;39908;-75
2023/12/08 14:36:06;;;;;;;19.15;8.48;;;;;;;;;;5054418;28;41336;-74
2023/12/08 14:38:34;;;;;;;16.52;7.68;;;;;;;;;;5057460;28;42049;-74
2023/12/08 14:41:02;;;;;;;16.23;6.63;;;;;;;;;;5036476;28;39158;-75
2023/12/08 14:43:30;;;;;;;19.95;8.52;;;;;;;;;;5058028;28;41953;-75
2023/12/08 14:45:58;;;;;;;13.57;7.72;;;;;;;;;;5058836;28;42848;-74